createdAt,value
2018-07-16T00:00:19.902Z,60290.17
2018-07-16T00:02:48.086Z,60291.19
2018-07-16T00:05:16.268Z,60300.34
2018-07-16T00:07:44.483Z,60305.41
2018-07-16T00:10:12.647Z,60298.30
2018-07-16T00:12:40.823Z,60299.32
2018-07-16T00:15:09.023Z,60288.14
2018-07-16T00:17:37.202Z,60305.41
2018-07-16T00:20:05.563Z,60286.11
2018-07-16T00:22:33.758Z,60301.35
2018-07-16T00:25:02.126Z,60309.48
2018-07-16T00:27:30.394Z,60302.37
2018-07-16T00:29:58.558Z,60299.32
2018-07-16T00:32:26.746Z,60307.45
2018-07-16T00:34:54.918Z,60303.38
2018-07-16T00:37:23.074Z,60308.46
2018-07-16T00:39:51.243Z,60303.38
2018-07-16T00:42:19.418Z,60339.96
2018-07-16T00:44:47.604Z,60284.07
2018-07-16T00:47:15.781Z,60288.14
2018-07-16T00:49:43.950Z,60315.57
2018-07-16T00:52:12.114Z,60293.22
2018-07-16T00:54:40.302Z,60329.80
2018-07-16T00:57:08.467Z,60321.67
2018-07-16T00:59:36.729Z,60328.79
2018-07-16T01:02:04.895Z,60286.11
2018-07-16T01:04:33.059Z,60307.45
2018-07-16T01:07:01.291Z,60315.57
2018-07-16T01:09:29.458Z,60304.40
2018-07-16T01:11:57.627Z,60282.04
2018-07-16T01:14:26.023Z,60323.71
2018-07-16T01:16:54.223Z,60316.59
2018-07-16T01:19:22.418Z,60306.43
2018-07-16T01:21:50.594Z,60315.57
2018-07-16T01:24:18.767Z,60314.56
2018-07-16T01:26:46.947Z,60318.62
2018-07-16T01:29:15.103Z,60332.85
2018-07-16T01:31:43.283Z,60326.75
2018-07-16T01:34:11.463Z,60340.98
2018-07-16T01:36:39.619Z,60324.72
2018-07-16T01:39:07.818Z,60297.29
2018-07-16T01:41:35.998Z,60333.87
2018-07-16T01:44:04.174Z,60300.34
2018-07-16T01:46:32.410Z,60294.24
2018-07-16T01:49:00.576Z,60289.16
2018-07-16T01:51:28.736Z,60333.87
2018-07-16T01:53:56.919Z,60318.62
2018-07-16T01:56:25.094Z,60320.66
2018-07-16T01:58:53.263Z,60330.82
2018-07-16T02:01:21.446Z,60339.96
2018-07-16T02:03:49.603Z,60330.82
2018-07-16T02:06:17.775Z,60313.54
2018-07-16T02:08:45.943Z,60317.61
2018-07-16T02:11:14.118Z,60319.64
2018-07-16T02:13:42.294Z,60334.88
2018-07-16T02:16:10.467Z,60314.56
2018-07-16T02:18:38.637Z,60354.19
2018-07-16T02:21:06.882Z,60344.03
2018-07-16T02:23:35.051Z,60311.51
2018-07-16T02:26:03.258Z,60329.80
2018-07-16T02:28:31.458Z,60304.40
2018-07-16T02:30:59.622Z,60317.61
2018-07-16T02:33:27.808Z,60321.67
2018-07-16T02:35:55.974Z,60315.57
2018-07-16T02:38:24.159Z,60340.98
2018-07-16T02:40:52.340Z,60346.06
2018-07-16T02:43:20.531Z,60338.95
2018-07-16T02:45:48.707Z,60310.50
2018-07-16T02:48:16.878Z,60326.75
2018-07-16T02:50:45.068Z,60334.88
2018-07-16T02:53:13.231Z,60323.71
2018-07-16T02:55:41.422Z,60311.51
2018-07-16T02:58:09.586Z,60330.82
2018-07-16T03:00:37.773Z,60325.74
2018-07-16T03:03:05.931Z,60327.77
2018-07-16T03:05:34.126Z,60325.74
2018-07-16T03:08:02.279Z,60326.75
2018-07-16T03:10:30.464Z,60337.93
2018-07-16T03:12:58.623Z,60329.80
2018-07-16T03:15:26.802Z,60331.84
2018-07-16T03:17:54.984Z,60325.74
2018-07-16T03:20:23.163Z,60339.96
2018-07-16T03:22:51.351Z,60343.01
2018-07-16T03:25:19.526Z,60339.96
2018-07-16T03:27:47.718Z,60325.74
2018-07-16T03:30:15.935Z,60354.19
2018-07-16T03:32:44.111Z,60322.69
2018-07-16T03:35:12.286Z,60332.85
2018-07-16T03:37:40.462Z,60344.03
2018-07-16T03:40:08.672Z,60329.80
2018-07-16T03:42:36.838Z,60344.03
2018-07-16T03:45:05.622Z,60340.98
2018-07-16T03:47:33.790Z,60363.34
2018-07-16T03:50:01.966Z,60340.98
2018-07-16T03:52:30.136Z,60352.16
2018-07-16T03:54:58.466Z,60347.08
2018-07-16T03:57:26.655Z,60360.29
2018-07-16T03:59:54.815Z,60316.59
2018-07-16T04:02:23.000Z,60329.80
2018-07-16T04:04:51.158Z,60323.71
2018-07-16T04:07:19.330Z,60353.18
2018-07-16T04:09:47.506Z,60347.08
2018-07-16T04:12:15.682Z,60349.11
2018-07-16T04:14:43.859Z,60339.96
2018-07-16T04:17:12.018Z,60340.98
2018-07-16T04:19:40.205Z,60357.24
2018-07-16T04:22:08.401Z,60367.40
2018-07-16T04:24:36.550Z,60343.01
2018-07-16T04:27:04.739Z,60351.14
2018-07-16T04:29:32.906Z,60342.00
2018-07-16T04:32:01.091Z,60364.35
2018-07-16T04:34:29.259Z,60351.14
2018-07-16T04:36:57.435Z,60375.53
2018-07-16T04:39:25.600Z,60330.82
2018-07-16T04:41:53.796Z,60327.77
2018-07-16T04:44:22.235Z,60360.29
2018-07-16T04:46:50.406Z,60336.91
2018-07-16T04:49:18.610Z,60349.11
2018-07-16T04:51:46.792Z,60356.22
2018-07-16T04:54:15.034Z,60363.34
2018-07-16T04:56:43.206Z,60345.04
2018-07-16T04:59:11.402Z,60342.00
2018-07-16T05:01:39.578Z,60327.77
2018-07-16T05:04:07.742Z,60334.88
2018-07-16T05:06:36.031Z,60350.12
2018-07-16T05:09:04.655Z,60349.11
2018-07-16T05:11:32.846Z,60331.84
2018-07-16T05:14:01.010Z,60369.43
2018-07-16T05:16:29.179Z,60335.90
2018-07-16T05:18:57.354Z,60359.27
2018-07-16T05:21:25.530Z,60332.85
2018-07-16T05:23:53.714Z,60346.06
2018-07-16T05:26:21.853Z,60345.04
2018-07-16T05:28:50.019Z,60333.87
2018-07-16T05:31:18.223Z,60343.01
2018-07-16T05:33:46.400Z,60337.93
2018-07-16T05:36:14.570Z,60350.12
2018-07-16T05:38:42.724Z,60329.80
2018-07-16T05:41:10.887Z,60359.27
2018-07-16T05:43:42.097Z,60353.18
2018-07-16T05:46:10.283Z,60333.87
2018-07-16T05:48:38.458Z,60331.84
2018-07-16T05:51:06.663Z,60348.09
2018-07-16T05:53:34.831Z,60334.88
2018-07-16T05:56:03.197Z,60331.84
2018-07-16T05:58:31.388Z,60355.21
2018-07-16T06:00:59.546Z,60370.45
2018-07-16T06:03:27.735Z,60342.00
2018-07-16T06:05:55.902Z,60358.25
2018-07-16T06:08:24.102Z,60329.80
2018-07-16T06:10:52.286Z,60342.00
2018-07-16T06:13:20.462Z,60331.84
2018-07-16T06:15:48.642Z,60342.00
2018-07-16T06:18:16.810Z,60324.72
2018-07-16T06:20:44.983Z,60351.14
2018-07-16T06:23:13.154Z,60323.71
2018-07-16T06:25:41.326Z,60326.75
2018-07-16T06:28:09.481Z,60320.66
2018-07-16T06:30:37.686Z,60342.00
2018-07-16T06:33:05.978Z,60339.96
2018-07-16T06:35:34.126Z,60331.84
2018-07-16T06:38:02.284Z,60318.62
2018-07-16T06:40:30.564Z,60335.90
2018-07-16T06:42:58.594Z,60315.57
2018-07-16T06:45:26.758Z,60317.61
2018-07-16T06:47:55.048Z,60330.82
2018-07-16T06:50:23.128Z,60314.56
2018-07-16T06:52:51.275Z,60331.84
2018-07-16T06:55:19.438Z,60305.41
2018-07-16T06:57:47.601Z,60307.45
2018-07-16T07:00:15.771Z,60326.75
2018-07-16T07:02:43.998Z,60316.59
2018-07-16T07:05:12.147Z,60316.59
2018-07-16T07:07:40.297Z,60304.40
2018-07-16T07:10:08.686Z,60320.66
2018-07-16T07:12:36.770Z,60291.19
2018-07-16T07:15:04.954Z,60308.46
2018-07-16T07:17:33.124Z,60289.16
2018-07-16T07:20:01.271Z,60280.01
2018-07-16T07:22:29.430Z,60315.57
2018-07-16T07:24:57.595Z,60303.38
2018-07-16T07:27:25.759Z,60304.40
2018-07-16T07:29:54.134Z,60307.45
2018-07-16T07:32:22.279Z,60300.34
2018-07-16T07:34:50.458Z,60286.11
2018-07-16T07:37:18.618Z,60317.61
2018-07-16T07:39:46.798Z,60275.95
2018-07-16T07:42:15.008Z,60294.24
2018-07-16T07:44:43.197Z,60293.22
2018-07-16T07:47:11.346Z,60301.35
2018-07-16T07:49:39.726Z,60294.24
2018-07-16T07:52:07.906Z,60299.32
2018-07-16T07:54:36.218Z,60285.09
2018-07-16T07:57:04.359Z,60293.22
2018-07-16T07:59:32.727Z,60298.30
2018-07-16T08:02:01.106Z,60266.80
2018-07-16T08:04:29.266Z,60272.90
2018-07-16T08:07:02.751Z,60284.07
2018-07-16T08:09:30.924Z,60265.79
2018-07-16T08:11:59.084Z,60290.17
2018-07-16T08:14:27.284Z,60274.93
2018-07-16T08:16:55.578Z,60267.82
2018-07-16T08:19:23.752Z,60257.66
2018-07-16T08:21:51.902Z,60276.96
2018-07-16T08:24:20.071Z,60273.91
2018-07-16T08:26:48.443Z,60274.93
2018-07-16T08:29:16.591Z,60255.63
2018-07-16T08:31:44.760Z,60252.57
2018-07-16T08:34:13.100Z,60266.80
2018-07-16T08:36:41.331Z,60254.61
2018-07-16T08:39:09.622Z,60265.79
2018-07-16T08:41:37.793Z,60248.51
2018-07-16T08:44:06.062Z,60263.75
2018-07-16T08:46:34.292Z,60256.64
2018-07-16T08:49:02.563Z,60269.85
2018-07-16T08:51:30.938Z,60267.82
2018-07-16T08:53:59.146Z,60251.56
2018-07-16T08:56:27.386Z,60260.71
2018-07-16T08:58:55.579Z,60240.38
2018-07-16T09:01:23.767Z,60252.57
2018-07-16T09:03:51.962Z,60249.53
2018-07-16T09:06:20.130Z,60221.07
2018-07-16T09:08:48.295Z,60239.36
2018-07-16T09:11:16.584Z,60252.57
2018-07-16T09:13:44.646Z,60213.96
2018-07-16T09:16:12.795Z,60222.09
2018-07-16T09:18:41.052Z,60223.11
2018-07-16T09:21:09.189Z,60209.90
2018-07-16T09:23:37.370Z,60225.14
2018-07-16T09:26:05.566Z,60210.91
2018-07-16T09:28:33.767Z,60224.12
2018-07-16T09:31:01.926Z,60194.66
2018-07-16T09:33:30.110Z,60209.90
2018-07-16T09:35:58.312Z,60215.99
2018-07-16T09:38:26.531Z,60197.70
2018-07-16T09:40:54.818Z,60196.69
2018-07-16T09:43:23.350Z,60202.79
2018-07-16T09:45:51.498Z,60188.56
2018-07-16T09:48:19.646Z,60177.38
2018-07-16T09:50:47.834Z,60187.54
2018-07-16T09:53:16.016Z,60189.57
2018-07-16T09:55:44.170Z,60157.06
2018-07-16T09:58:12.315Z,60169.25
2018-07-16T10:00:45.686Z,60149.95
2018-07-16T10:03:13.842Z,60143.85
2018-07-16T10:05:42.023Z,60166.20
2018-07-16T10:08:10.183Z,60153.00
2018-07-16T10:10:38.427Z,60135.72
2018-07-16T10:13:06.804Z,60138.77
2018-07-16T10:15:35.144Z,60140.80
2018-07-16T10:18:03.319Z,60138.77
2018-07-16T10:20:31.552Z,60118.45
2018-07-16T10:22:59.682Z,60139.79
2018-07-16T10:25:27.890Z,60120.48
2018-07-16T10:27:56.199Z,60107.27
2018-07-16T10:30:24.448Z,60116.41
2018-07-16T10:32:52.658Z,60106.25
2018-07-16T10:35:20.859Z,60108.29
2018-07-16T10:37:49.067Z,60112.35
2018-07-16T10:40:17.266Z,60084.91
2018-07-16T10:42:45.475Z,60086.95
2018-07-16T10:45:13.702Z,60077.80
2018-07-16T10:47:41.891Z,60083.90
2018-07-16T10:50:10.091Z,60084.91
2018-07-16T10:52:38.290Z,60090.00
2018-07-16T10:55:06.548Z,60074.75
2018-07-16T10:57:34.703Z,60066.62
2018-07-16T11:00:02.918Z,60072.72
2018-07-16T11:02:31.135Z,60086.95
2018-07-16T11:04:59.340Z,60073.74
2018-07-16T11:07:27.579Z,60071.71
2018-07-16T11:09:55.777Z,60069.67
2018-07-16T11:12:23.987Z,60070.69
2018-07-16T11:14:52.269Z,60076.79
2018-07-16T11:17:20.399Z,60062.56
2018-07-16T11:19:48.587Z,60063.57
2018-07-16T11:22:16.799Z,60054.43
2018-07-16T11:24:45.007Z,60066.62
2018-07-16T11:27:13.199Z,60073.74
2018-07-16T11:29:41.374Z,60061.54
2018-07-16T11:32:09.706Z,60054.43
2018-07-16T11:34:37.862Z,60082.88
2018-07-16T11:37:06.088Z,60056.46
2018-07-16T11:39:34.250Z,60063.57
2018-07-16T11:42:02.394Z,60049.35
2018-07-16T11:44:30.621Z,60058.50
2018-07-16T11:46:58.802Z,60052.40
2018-07-16T11:49:27.266Z,60058.50
2018-07-16T11:51:55.462Z,60055.45
2018-07-16T11:54:23.624Z,60055.45
2018-07-16T11:56:51.808Z,60060.53
2018-07-16T11:59:20.619Z,60054.43
2018-07-16T12:01:48.747Z,60045.29
2018-07-16T12:04:16.854Z,60048.34
2018-07-16T12:06:45.011Z,60054.43
2018-07-16T12:09:13.196Z,60044.27
2018-07-16T12:11:41.359Z,60062.56
2018-07-16T12:14:09.510Z,60055.45
2018-07-16T12:16:37.718Z,60049.35
2018-07-16T12:19:05.923Z,60081.87
2018-07-16T12:21:34.091Z,60064.59
2018-07-16T12:24:02.264Z,60067.64
2018-07-16T12:26:30.422Z,60067.64
2018-07-16T12:28:58.615Z,60059.51
2018-07-16T12:31:26.771Z,60061.54
2018-07-16T12:33:55.138Z,60062.56
2018-07-16T12:36:23.314Z,60063.57
2018-07-16T12:38:51.490Z,60063.57
2018-07-16T12:41:19.834Z,60053.42
2018-07-16T12:43:47.871Z,60052.40
2018-07-16T12:46:16.102Z,60052.40
2018-07-16T12:48:44.262Z,60063.57
2018-07-16T12:51:12.422Z,60050.37
2018-07-16T12:53:40.587Z,60045.29
2018-07-16T12:56:08.774Z,60051.38
2018-07-16T12:58:36.983Z,60049.35
2018-07-16T13:01:05.151Z,60055.45
2018-07-16T13:03:33.314Z,60058.50
2018-07-16T13:06:01.495Z,60065.61
2018-07-16T13:08:29.642Z,60059.51
2018-07-16T13:10:57.842Z,60064.59
2018-07-16T13:13:26.003Z,60077.80
2018-07-16T13:15:54.197Z,60058.50
2018-07-16T13:18:22.338Z,60073.74
2018-07-16T13:20:50.495Z,60069.67
2018-07-16T13:23:18.726Z,60069.67
2018-07-16T13:25:46.925Z,60076.79
2018-07-16T13:28:15.069Z,60073.74
2018-07-16T13:30:43.253Z,60088.98
2018-07-16T13:33:11.699Z,60092.03
2018-07-16T13:35:41.681Z,60077.80
2018-07-16T13:38:10.487Z,60086.95
2018-07-16T13:40:38.670Z,60072.72
2018-07-16T13:43:06.894Z,60082.88
2018-07-16T13:45:35.095Z,60090.00
2018-07-16T13:48:03.327Z,60082.88
2018-07-16T13:50:31.519Z,60094.06
2018-07-16T13:53:00.163Z,60100.16
2018-07-16T13:55:28.778Z,60083.90
2018-07-16T13:57:57.355Z,60081.87
2018-07-16T14:00:26.072Z,60069.67
2018-07-16T14:02:54.396Z,60085.93
2018-07-16T14:05:22.743Z,60081.87
2018-07-16T14:07:51.080Z,60073.74
2018-07-16T14:10:19.450Z,60063.57
2018-07-16T14:12:48.298Z,60071.71
2018-07-16T14:15:16.602Z,60073.74
2018-07-16T14:17:45.025Z,60077.80
2018-07-16T14:20:13.531Z,60067.64
2018-07-16T14:22:42.259Z,60098.12
2018-07-16T14:25:10.879Z,60092.03
2018-07-16T14:27:39.322Z,60069.67
2018-07-16T14:30:07.858Z,60085.93
2018-07-16T14:32:36.631Z,60070.69
2018-07-16T14:35:04.904Z,60072.72
2018-07-16T14:37:33.137Z,60072.72
2018-07-16T14:40:02.050Z,60070.69
2018-07-16T14:42:30.235Z,60090.00
2018-07-16T14:44:58.600Z,60080.85
2018-07-16T14:47:27.022Z,60083.90
2018-07-16T14:49:55.635Z,60097.11
2018-07-16T14:52:23.818Z,60092.03
2018-07-16T14:54:52.342Z,60087.96
2018-07-16T14:57:20.556Z,60111.33
2018-07-16T14:59:48.734Z,60083.90
2018-07-16T15:02:17.980Z,60111.33
2018-07-16T15:04:46.267Z,60097.11
2018-07-16T15:07:14.454Z,60098.12
2018-07-16T15:09:42.619Z,60107.27
2018-07-16T15:12:10.835Z,60104.22
2018-07-16T15:14:39.014Z,60100.16
2018-07-16T15:17:07.186Z,60106.25
2018-07-16T15:19:35.338Z,60096.09
2018-07-16T15:22:03.533Z,60102.19
2018-07-16T15:24:31.702Z,60096.09
2018-07-16T15:26:59.861Z,60099.14
2018-07-16T15:29:28.034Z,60096.09
2018-07-16T15:31:56.415Z,60087.96
2018-07-16T15:34:24.946Z,60107.27
2018-07-16T15:36:53.116Z,60108.29
2018-07-16T15:39:21.414Z,60087.96
2018-07-16T15:41:49.667Z,60101.17
2018-07-16T15:44:17.918Z,60099.14
2018-07-16T15:46:46.109Z,60102.19
2018-07-16T15:49:14.305Z,60099.14
2018-07-16T15:51:42.477Z,60098.12
2018-07-16T15:54:10.653Z,60096.09
2018-07-16T15:56:38.835Z,60107.27
2018-07-16T15:59:07.022Z,60106.25
2018-07-16T16:01:35.202Z,60117.43
2018-07-16T16:04:03.374Z,60107.27
2018-07-16T16:06:31.589Z,60091.01
2018-07-16T16:08:59.824Z,60099.14
2018-07-16T16:11:27.970Z,60114.38
2018-07-16T16:13:56.163Z,60106.25
2018-07-16T16:16:24.330Z,60125.56
2018-07-16T16:18:52.496Z,60124.54
2018-07-16T16:21:20.642Z,60113.37
2018-07-16T16:23:48.811Z,60107.27
2018-07-16T16:26:17.024Z,60097.11
2018-07-16T16:28:45.114Z,60099.14
2018-07-16T16:31:13.282Z,60113.37
2018-07-16T16:33:41.490Z,60109.30
2018-07-16T16:36:09.666Z,60112.35
2018-07-16T16:38:37.822Z,60122.51
2018-07-16T16:41:06.335Z,60101.17
2018-07-16T16:43:34.510Z,60102.19
2018-07-16T16:46:02.658Z,60120.48
2018-07-16T16:48:30.811Z,60115.40
2018-07-16T16:50:58.970Z,60115.40
2018-07-16T16:53:27.141Z,60126.57
2018-07-16T16:55:55.339Z,60132.67
2018-07-16T16:58:23.558Z,60125.56
2018-07-16T17:00:52.074Z,60107.27
2018-07-16T17:03:20.250Z,60100.16
2018-07-16T17:05:49.427Z,60110.32
2018-07-16T17:08:17.587Z,60107.27
2018-07-16T17:10:45.738Z,60106.25
2018-07-16T17:13:13.906Z,60110.32
2018-07-16T17:15:42.063Z,60111.33
2018-07-16T17:18:10.300Z,60123.53
2018-07-16T17:20:38.374Z,60117.43
2018-07-16T17:23:06.591Z,60117.43
2018-07-16T17:25:34.694Z,60115.40
2018-07-16T17:28:02.882Z,60117.43
2018-07-16T17:30:31.047Z,60113.37
2018-07-16T17:32:59.247Z,60123.53
2018-07-16T17:35:27.408Z,60135.72
2018-07-16T17:37:55.562Z,60123.53
2018-07-16T17:40:23.738Z,60112.35
2018-07-16T17:42:51.934Z,60139.79
2018-07-16T17:45:20.042Z,60129.63
2018-07-16T17:47:48.186Z,60117.43
2018-07-16T17:50:16.335Z,60134.70
2018-07-16T17:52:44.498Z,60126.57
2018-07-16T17:55:12.646Z,60133.69
2018-07-16T17:57:40.821Z,60149.95
2018-07-16T18:00:09.014Z,60139.79
2018-07-16T18:02:37.174Z,60128.61
2018-07-16T18:05:05.344Z,60131.66
2018-07-16T18:07:33.508Z,60113.37
2018-07-16T18:10:03.134Z,60124.54
2018-07-16T18:12:31.321Z,60136.73
2018-07-16T18:14:59.479Z,60134.70
2018-07-16T18:17:27.642Z,60126.57
2018-07-16T18:19:55.802Z,60136.73
2018-07-16T18:22:23.977Z,60142.83
2018-07-16T18:24:52.130Z,60130.64
2018-07-16T18:27:20.335Z,60145.88
2018-07-16T18:29:48.481Z,60160.11
2018-07-16T18:32:16.646Z,60145.88
2018-07-16T18:34:44.802Z,60136.73
2018-07-16T18:37:12.959Z,60122.51
2018-07-16T18:39:41.115Z,60146.90
2018-07-16T18:42:09.318Z,60128.61
2018-07-16T18:44:37.462Z,60144.87
2018-07-16T18:47:05.680Z,60149.95
2018-07-16T18:49:33.865Z,60148.93
2018-07-16T18:52:02.022Z,60163.16
2018-07-16T18:54:30.180Z,60136.73
2018-07-16T18:56:58.342Z,60174.33
2018-07-16T18:59:26.529Z,60157.06
2018-07-16T19:01:54.718Z,60181.45
2018-07-16T19:04:22.878Z,60172.30
2018-07-16T19:06:51.053Z,60174.33
2018-07-16T19:09:19.246Z,60175.35
2018-07-16T19:11:47.419Z,60178.40
2018-07-16T19:14:15.598Z,60187.54
2018-07-16T19:16:43.758Z,60188.56
2018-07-16T19:19:11.918Z,60174.33
2018-07-16T19:21:40.086Z,60181.45
2018-07-16T19:24:08.279Z,60188.56
2018-07-16T19:26:36.446Z,60201.77
2018-07-16T19:29:04.630Z,60195.67
2018-07-16T19:31:32.858Z,60183.48
2018-07-16T19:34:01.043Z,60204.82
2018-07-16T19:36:29.223Z,60197.70
2018-07-16T19:38:57.453Z,60205.83
2018-07-16T19:41:25.558Z,60233.27
2018-07-16T19:43:53.722Z,60209.90
2018-07-16T19:46:21.905Z,60209.90
2018-07-16T19:48:50.078Z,60201.77
2018-07-16T19:51:18.254Z,60194.66
2018-07-16T19:53:46.451Z,60215.99
2018-07-16T19:56:14.626Z,60217.01
2018-07-16T19:58:42.787Z,60200.75
2018-07-16T20:01:10.983Z,60220.06
2018-07-16T20:03:39.173Z,60213.96
2018-07-16T20:06:07.338Z,60228.19
2018-07-16T20:08:35.510Z,60209.90
2018-07-16T20:11:03.706Z,60207.86
2018-07-16T20:13:31.926Z,60243.43
2018-07-16T20:16:00.094Z,60218.03
2018-07-16T20:18:28.357Z,60223.11
2018-07-16T20:20:57.865Z,60213.96
2018-07-16T20:23:25.962Z,60222.09
2018-07-16T20:25:55.672Z,60221.07
2018-07-16T20:28:23.938Z,60233.27
2018-07-16T20:30:52.105Z,60218.03
2018-07-16T20:33:20.308Z,60234.29
2018-07-16T20:35:48.766Z,60234.29
2018-07-16T20:38:17.010Z,60252.57
2018-07-16T20:40:45.527Z,60233.27
2018-07-16T20:43:13.774Z,60220.06
2018-07-16T20:45:41.974Z,60249.53
2018-07-16T20:48:10.138Z,60246.48
2018-07-16T20:50:38.347Z,60221.07
2018-07-16T20:53:06.524Z,60213.96
2018-07-16T20:55:34.674Z,60234.29
2018-07-16T20:58:02.850Z,60251.56
2018-07-16T21:00:31.072Z,60213.96
2018-07-16T21:02:59.250Z,60243.43
2018-07-16T21:05:27.426Z,60243.43
2018-07-16T21:07:55.622Z,60230.22
2018-07-16T21:10:23.789Z,60239.36
2018-07-16T21:12:51.982Z,60238.35
2018-07-16T21:15:20.270Z,60249.53
2018-07-16T21:17:48.461Z,60241.40
2018-07-16T21:20:16.656Z,60242.41
2018-07-16T21:22:44.830Z,60252.57
2018-07-16T21:25:13.014Z,60253.59
2018-07-16T21:27:41.194Z,60237.33
2018-07-16T21:30:09.387Z,60250.54
2018-07-16T21:32:37.531Z,60244.45
2018-07-16T21:35:05.723Z,60247.49
2018-07-16T21:37:33.886Z,60249.53
2018-07-16T21:40:02.046Z,60235.30
2018-07-16T21:42:30.218Z,60271.88
2018-07-16T21:44:58.398Z,60250.54
2018-07-16T21:47:26.558Z,60269.85
2018-07-16T21:49:54.723Z,60244.45
2018-07-16T21:52:23.731Z,60257.66
2018-07-16T21:54:51.897Z,60273.91
2018-07-16T21:57:20.098Z,60259.69
2018-07-16T21:59:48.278Z,60250.54
2018-07-16T22:02:16.460Z,60257.66
2018-07-16T22:04:44.643Z,60255.63
2018-07-16T22:07:12.806Z,60261.72
2018-07-16T22:09:40.977Z,60258.67
2018-07-16T22:12:09.135Z,60257.66
2018-07-16T22:14:37.310Z,60262.74
2018-07-16T22:17:05.474Z,60264.77
2018-07-16T22:19:33.638Z,60252.57
2018-07-16T22:22:01.815Z,60262.74
2018-07-16T22:24:29.990Z,60255.63
2018-07-16T22:26:58.146Z,60283.06
2018-07-16T22:29:26.334Z,60267.82
2018-07-16T22:31:54.482Z,60274.93
2018-07-16T22:34:22.671Z,60262.74
2018-07-16T22:36:51.003Z,60288.14
2018-07-16T22:39:19.158Z,60271.88
2018-07-16T22:41:47.323Z,60257.66
2018-07-16T22:44:15.470Z,60278.99
2018-07-16T22:46:43.640Z,60263.75
2018-07-16T22:49:11.802Z,60282.04
2018-07-16T22:51:39.966Z,60285.09
2018-07-16T22:54:08.185Z,60262.74
2018-07-16T22:56:36.302Z,60265.79
2018-07-16T22:59:04.458Z,60266.80
2018-07-16T23:01:32.614Z,60270.87
2018-07-16T23:04:00.782Z,60268.83
2018-07-16T23:06:28.962Z,60272.90
2018-07-16T23:08:57.122Z,60278.99
2018-07-16T23:11:25.274Z,60285.09
2018-07-16T23:13:53.458Z,60256.64
2018-07-16T23:16:21.618Z,60273.91
2018-07-16T23:18:49.786Z,60293.22
2018-07-16T23:21:17.942Z,60284.07
2018-07-16T23:23:46.090Z,60286.11
2018-07-16T23:26:14.255Z,60287.12
2018-07-16T23:28:42.447Z,60292.21
2018-07-16T23:31:10.594Z,60282.04
2018-07-16T23:33:38.743Z,60288.14
2018-07-16T23:36:06.898Z,60281.03
2018-07-16T23:38:35.103Z,60276.96
2018-07-16T23:41:03.274Z,60272.90
2018-07-16T23:43:31.447Z,60292.21
2018-07-16T23:45:59.602Z,60272.90
2018-07-16T23:48:27.746Z,60265.79
2018-07-16T23:50:55.920Z,60273.91
2018-07-16T23:53:24.078Z,60280.01
2018-07-16T23:55:52.250Z,60287.12
2018-07-16T23:58:20.394Z,60278.99
